Latest Weather Observations for Rabbit Flat

IDD60801

Issued at 10:05 pm CST Thursday 28 August 2014 (issued every 30 minutes, with the page automatically refreshed every 10 minutes)

About weather observations | Map of weather stations | Latest weather observations for NT | Other Formats
Station Details ID: 015666 Name: RABBIT FLAT Lat: -20.82 Lon: 130.01 Height: 340.0 m
Data from the previous 72 hours. | See also: Recent months at Rabbit Flat
Date/Time
CST
Temp
°C
App
Temp
°C
Dew
Point
Rel
Hum
%
Delta-T
°C
Wind Press
QNH
hPa
Press
MSL
hPa
Rain
since 9 am
mm
Dir
 
Spd
km/h
Gust
km/h
Spd
kts
Gust
kts
28/10:00pm 11.3 7.8 -1.4 41 5.1 S 7 9 4 5 1020.1 - 0.0
28/09:30pm 12.0 7.5 -6.7 26 6.7 S 9 17 5 9 1020.1 - 0.0
28/09:00pm 11.6 7.9 -4.8 31 6.1 SSE 6 7 3 4 1019.8 1018.7 0.0
28/08:30pm 12.8 9.2 -3.3 32 6.3 SSE 6 7 3 4 1019.3 - 0.0
28/08:00pm 15.7 11.7 -5.7 22 8.2 SE 7 9 4 5 1018.8 - 0.0
28/07:59pm 15.4 11.5 -4.5 25 7.8 SE 7 9 4 5 1018.8 - 0.0
28/07:30pm 20.4 16.1 -5.2 17 10.4 E 9 11 5 6 1018.5 - 0.0
28/07:00pm 21.7 16.9 -6.4 14 11.3 ESE 11 13 6 7 1018.1 - 0.0
28/06:30pm 24.1 19.4 -9.2 10 13.0 ESE 9 13 5 7 1018.0 - 0.0
28/06:00pm 25.7 20.4 -11.9 7 14.2 SE 11 19 6 10 1017.7 1016.7 0.0
28/05:30pm 26.4 20.3 -13.1 6 14.7 SE 15 28 8 15 1017.6 - 0.0
28/05:00pm 26.7 21.1 -11.7 7 14.7 ESE 13 20 7 11 1017.5 - 0.0
28/04:30pm 26.7 20.2 -13.4 6 14.9 ESE 17 22 9 12 1017.5 - 0.0
28/04:00pm 27.1 20.6 -13.3 6 15.1 ESE 17 26 9 14 1017.7 - 0.0
28/03:30pm 27.4 21.3 -12.8 6 15.2 E 15 28 8 15 1018.1 - 0.0
28/03:00pm 27.0 20.7 -9.7 8 14.6 E 17 30 9 16 1018.4 1017.4 0.0
28/02:30pm 27.1 21.2 -10.0 8 14.7 E 15 22 8 12 1018.7 - 0.0
28/02:00pm 26.4 19.5 -13.2 6 14.7 ESE 19 32 10 17 1019.2 - 0.0
28/01:30pm 25.6 18.6 -12.5 7 14.2 E 20 32 11 17 1019.8 - 0.0
28/01:00pm 25.4 18.5 -10.9 8 13.9 ESE 20 32 11 17 1020.5 - 0.0
28/12:30pm 24.4 17.6 -9.7 9 13.2 E 20 35 11 19 1021.3 - 0.0
28/12:00pm 24.4 16.8 -10.4 9 13.3 E 24 39 13 21 1021.6 1020.7 0.0
28/11:30am 23.8 17.1 -7.8 11 12.6 E 20 32 11 17 1022.2 - 0.0
28/11:00am 23.6 16.0 -9.9 10 12.9 E 24 39 13 21 1022.4 - 0.0
28/10:30am 22.9 15.0 -8.3 12 12.3 ENE 26 41 14 22 1022.5 - 0.0
28/10:00am 21.6 13.8 -7.4 13 11.4 E 26 39 14 21 1022.6 - 0.0
28/09:30am 19.7 11.9 -7.8 15 10.5 E 26 41 14 22 1022.6 - 0.0
28/09:00am 16.7 10.6 -8.1 17 9.1 E 17 26 9 14 1022.6 1021.6 0.0
28/08:30am 14.0 9.0 -8.4 20 7.9 SE 11 15 6 8 1022.5 - 0.0
28/08:00am 10.0 5.9 -7.0 29 5.9 SSE 7 11 4 6 1022.3 - 0.0
28/07:30am 5.3 0.8 -6.6 42 3.9 S 9 11 5 6 1021.9 - 0.0
28/07:00am 5.2 0.5 -8.6 36 4.3 S 9 11 5 6 1021.4 - 0.0
28/06:30am 1.3 - - - - S 9 11 5 6 1021.0 - 0.0
28/06:00am 1.3 - - - - SSW 6 7 3 4 1020.5 1019.6 0.0
28/05:30am 1.3 - - - - SW 6 7 3 4 1020.0 - 0.0
28/05:00am 1.9 - - - - CALM 0 0 0 0 1019.6 - 0.0
28/04:30am 2.5 - - - - SW 9 11 5 6 1019.4 - 0.0
28/04:00am 2.2 - - - - W 6 7 3 4 1019.3 - 0.0
28/03:30am 3.3 - - - - NW 9 11 5 6 1019.3 - 0.0
28/03:00am 3.1 - - - - S 4 6 2 3 1019.4 1018.3 0.0
28/02:30am 3.5 -0.6 -6.3 48 3.2 S 7 9 4 5 1019.5 - 0.0
28/02:00am 4.3 -0.2 -6.9 44 3.6 S 9 11 5 6 1019.6 - 0.0
28/01:30am 3.9 0.0 -6.7 46 3.4 SSE 6 7 3 4 1019.8 - 0.0
28/01:00am 3.8 -0.1 -6.4 47 3.3 SSE 6 7 3 4 1020.0 - 0.0
28/12:30am 4.6 1.4 -7.7 40 3.9 SSE 2 7 1 4 1020.0 - 0.0
28/12:00am 5.1 1.1 -7.3 40 4.0 SSE 6 7 3 4 1020.2 1019.2 0.0
 
Date/Time
CST
Temp
°C
App
Temp
°C
Dew
Point
Rel
Hum
%
Delta-T
°C
Wind Press
QNH
hPa
Press
MSL
hPa
Rain
since 9 am
mm
Dir
 
Spd
km/h
Gust
km/h
Spd
kts
Gust
kts
27/11:30pm 7.2 3.2 -7.7 34 4.9 SSE 6 7 3 4 1020.2 - 0.0
27/11:00pm 9.3 4.9 -10.1 24 6.2 SSE 7 9 4 5 1020.3 - 0.0
27/10:30pm 6.5 2.4 -6.2 40 4.3 ESE 7 11 4 6 1020.3 - 0.0
27/10:00pm 7.5 3.3 -7.2 34 4.9 SE 7 9 4 5 1020.3 - 0.0
27/09:30pm 9.1 5.0 -6.4 33 5.4 SE 7 9 4 5 1020.3 - 0.0
27/09:00pm 9.6 5.4 -7.3 29 5.8 SE 7 9 4 5 1020.2 1019.2 0.0
27/08:30pm 12.1 7.7 -9.7 21 7.3 E 7 9 4 5 1020.0 - 0.0
27/08:00pm 16.1 12.0 -8.5 17 8.9 SSE 6 11 3 6 1019.4 - 0.0
27/07:30pm 18.5 14.2 -9.4 14 10.2 SE 7 9 4 5 1018.8 - 0.0
27/07:00pm 21.3 16.9 -10.2 11 11.7 SE 7 9 4 5 1018.4 - 0.0
27/06:30pm 23.9 18.8 -15.1 6 13.6 SE 9 13 5 7 1018.1 - 0.0
27/06:00pm 25.8 19.3 -21.9 3 15.1 ESE 15 20 8 11 1017.9 1016.9 0.0
27/05:30pm 26.5 19.5 -24.6 2 15.6 E 17 24 9 13 1017.8 - 0.0
27/05:00pm 27.0 20.0 -25.5 2 15.9 E 17 28 9 15 1017.7 - 0.0
27/04:30pm 27.1 19.7 -26.6 2 16.0 ESE 19 26 10 14 1017.5 - 0.0
27/04:00pm 27.3 20.0 -24.2 2 16.0 E 19 32 10 17 1017.6 - 0.0
27/03:30pm 27.5 21.0 -22.1 3 16.0 ESE 15 26 8 14 1017.6 - 0.0
27/03:00pm 27.0 19.5 -36.2 1 16.2 ESE 19 32 10 17 1017.9 1016.9 0.0
27/02:30pm 27.0 19.0 -31.6 1 16.1 ENE 22 32 12 17 1018.3 - 0.0
27/02:00pm 26.3 18.9 -27.3 2 15.6 ESE 19 32 10 17 1018.7 - 0.0
27/01:30pm 25.8 18.2 -26.3 2 15.3 ENE 20 30 11 16 1019.3 - 0.0
27/01:00pm 26.8 19.5 -21.8 3 15.6 E 19 33 10 18 1019.8 - 0.0
27/12:30pm 25.6 17.9 -19.2 4 14.8 E 22 32 12 17 1020.5 - 0.0
27/12:00pm 25.2 18.1 -16.7 5 14.4 E 19 26 10 14 1021.2 1020.2 0.0
27/11:30am 24.0 15.9 -18.2 5 13.9 ENE 24 35 13 19 1021.7 - 0.0
27/11:00am 24.2 17.5 -18.2 5 14.0 E 17 33 9 18 1021.9 - 0.0
27/10:30am 23.0 14.5 -19.6 5 13.5 E 26 35 14 19 1021.9 - 0.0
27/10:00am 22.0 13.9 -18.2 5 12.9 E 24 37 13 20 1021.8 - 0.0
27/09:30am 20.6 12.6 -15.8 7 12.0 ENE 24 37 13 20 1021.7 - 0.0
27/09:00am 18.6 11.4 -16.4 8 11.1 E 20 35 11 19 1021.5 1020.5 0.0
27/08:30am 15.5 10.0 -9.6 17 8.8 E 13 20 7 11 1021.2 - 0.0
27/08:00am 12.5 7.6 -7.1 25 7.0 ESE 11 17 6 9 1020.8 - 0.0
27/07:30am 10.4 5.1 -7.2 28 6.1 E 13 19 7 10 1020.3 - 0.0
27/07:00am 8.1 3.8 -4.4 41 4.5 ESE 9 11 5 6 1020.2 - 0.0
27/06:30am 7.5 3.4 -3.0 47 3.9 SSE 9 9 5 5 1020.1 - 0.0
27/06:00am 6.0 1.2 -2.4 55 3.1 S 13 20 7 11 1019.9 1018.8 0.0
27/05:30am 4.9 2.7 -1.5 63 2.4 CALM 0 0 0 0 1019.4 - 0.0
27/05:00am 7.9 4.4 -1.7 50 3.7 E 7 9 4 5 1019.1 - 0.0
27/04:30am 9.7 6.0 -2.5 42 4.7 ENE 7 9 4 5 1019.1 - 0.0
27/04:00am 7.6 4.4 0.7 61 2.8 SE 7 9 4 5 1019.0 - 0.0
27/03:30am 10.1 6.2 -1.5 44 4.6 S 9 11 5 6 1019.1 - 0.0
27/03:00am 9.2 5.4 -0.9 49 4.0 S 9 11 5 6 1019.1 1018.0 0.0
27/02:30am 8.4 4.1 -1.3 50 3.8 S 11 13 6 7 1019.2 - 0.0
27/02:00am 7.0 3.5 -1.0 57 3.1 S 7 9 4 5 1019.3 - 0.0
27/01:30am 7.2 3.8 -1.7 53 3.4 S 6 7 3 4 1019.5 - 0.0
27/01:00am 8.1 4.7 -0.8 53 3.5 S 7 9 4 5 1019.5 - 0.0
27/12:30am 9.2 5.7 -1.5 47 4.2 S 7 11 4 6 1019.7 - 0.0
27/12:00am 9.1 5.5 -2.0 45 4.3 S 7 11 4 6 1019.7 1018.8 0.0
 
Date/Time
CST
Temp
°C
App
Temp
°C
Dew
Point
Rel
Hum
%
Delta-T
°C
Wind Press
QNH
hPa
Press
MSL
hPa
Rain
since 9 am
mm
Dir
 
Spd
km/h
Gust
km/h
Spd
kts
Gust
kts
26/11:30pm 9.8 6.3 -1.0 47 4.3 SSE 7 7 4 4 1019.8 - 0.0
26/11:00pm 10.4 7.1 -1.4 44 4.7 SSE 6 7 3 4 1020.0 - 0.0
26/10:30pm 11.5 8.2 -1.1 41 5.1 SSE 6 6 3 3 1020.2 - 0.0
26/10:00pm 11.9 8.6 -1.5 39 5.4 SSE 6 7 3 4 1020.1 - 0.0
26/09:41pm 13.8 10.6 -0.5 37 6.0 SSE 6 - 3 - - 1019.0 0.0
26/09:30pm 14.7 11.1 -1.8 32 6.8 SE 7 9 4 5 1019.9 - 0.0
26/09:00pm 17.1 13.7 -0.4 30 7.6 ESE 7 11 4 6 1019.7 - 0.0
26/08:30pm 19.1 15.0 -2.7 22 9.2 ESE 9 13 5 7 1019.4 - 0.0
26/08:00pm 19.0 15.2 -3.4 21 9.3 SSE 7 13 4 7 1019.1 - 0.0
26/07:30pm 21.0 16.8 -3.7 18 10.4 SE 9 15 5 8 1018.7 - 0.0
26/07:00pm 22.7 18.4 -4.8 15 11.5 ESE 9 13 5 7 1018.4 - 0.0
26/06:30pm 24.5 19.7 -6.1 12 12.7 ESE 11 17 6 9 1018.1 - 0.0
26/06:00pm 26.0 20.2 -8.5 9 13.9 ESE 15 26 8 14 1017.8 1016.8 0.0
26/05:30pm 26.7 20.8 -9.3 8 14.4 E 15 24 8 13 1017.7 - 0.0
26/05:00pm 26.9 21.0 -9.3 8 14.5 E 15 26 8 14 1017.6 - 0.0
26/04:30pm 26.9 19.7 -10.0 8 14.6 E 22 33 12 18 1017.6 - 0.0
26/04:00pm 27.0 20.1 -10.4 8 14.7 E 20 33 11 18 1017.7 - 0.0
26/03:30pm 26.9 20.0 -10.0 8 14.6 E 20 32 11 17 1018.0 - 0.0
26/03:00pm 26.9 20.2 -8.6 9 14.4 ESE 20 33 11 18 1018.3 1017.3 0.0
26/02:30pm 26.9 20.5 -6.7 10 14.1 E 19 32 10 17 1018.8 - 0.0
26/02:00pm 26.8 20.5 -5.8 11 13.9 ENE 19 32 10 17 1019.4 - 0.0
26/01:30pm 25.5 18.6 -5.9 12 13.2 ESE 22 39 12 21 1020.0 - 0.0
26/01:00pm 25.3 18.9 -5.4 12 13.0 ESE 20 30 11 16 1020.5 - 0.0
26/12:30pm 25.0 18.7 -4.2 14 12.6 ENE 20 30 11 16 1021.3 - 0.0
26/12:00pm 24.5 18.0 -5.6 13 12.6 E 20 32 11 17 1021.9 1021.0 0.0
26/11:30am 24.5 18.1 -5.1 13 12.5 E 20 37 11 20 1022.4 - 0.0
26/11:00am 24.2 16.7 -4.9 14 12.3 E 26 41 14 22 1022.9 - 0.0
26/10:30am 23.4 17.2 -4.5 15 11.8 E 19 33 10 18 1023.4 - 0.0
26/10:00am 22.1 15.0 -4.0 17 11.1 E 24 33 13 18 1023.5 - 0.0
26/09:30am 20.9 13.9 -3.6 19 10.3 E 24 35 13 19 1023.5 - 0.0
26/09:00am 19.8 14.2 -3.0 21 9.6 E 17 32 9 17 1023.4 1022.3 0.0
26/08:30am 17.7 12.5 -2.4 25 8.4 ESE 15 24 8 13 1023.1 - 0.0
26/08:23am 17.0 12.2 -2.2 27 8.0 ESE 13 24 7 13 1023.1 - 0.0
26/08:00am 11.9 8.5 -0.5 42 5.1 SE 7 9 4 5 1023.0 - 0.0
26/07:54am 9.9 6.6 -0.2 49 4.1 SSE 7 9 4 5 1023.0 - 0.0
26/07:30am 4.8 2.8 -0.4 69 2.0 CALM 0 0 0 0 1022.7 - 0.0
26/07:00am 4.4 1.6 -0.6 70 1.9 SSE 4 6 2 3 1022.3 - 0.0
26/06:30am 5.5 2.7 -0.2 67 2.2 SSE 4 6 2 3 1021.7 - 0.0
26/06:00am 5.6 2.5 0.3 69 2.1 SSE 6 7 3 4 1021.3 1020.3 0.0
26/05:30am 7.5 4.4 0.0 59 3.0 SSE 6 7 3 4 1021.2 - 0.0
26/05:00am 8.1 4.8 -0.2 56 3.3 SSE 7 9 4 5 1021.0 - 0.0
26/04:30am 8.3 5.2 1.6 62 2.8 SSE 7 9 4 5 1020.9 - 0.0
26/04:00am 8.4 4.7 -0.1 55 3.4 S 9 13 5 7 1020.8 - 0.0
26/03:30am 7.6 4.2 -0.5 56 3.2 S 7 9 4 5 1020.7 - 0.0
26/03:00am 7.3 3.9 -0.3 58 3.0 S 7 7 4 4 1020.8 1019.8 0.0
26/02:30am 7.0 3.8 -0.7 58 3.0 SSE 6 7 3 4 1020.9 - 0.0
26/02:00am 7.2 3.9 -1.4 54 3.3 SSE 6 7 3 4 1020.9 - 0.0
26/01:30am 7.3 5.2 -0.6 57 3.1 CALM 0 0 0 0 1021.1 - 0.0
26/01:00am 8.4 6.3 -1.0 51 3.7 CALM 0 0 0 0 1021.1 - 0.0
26/12:30am 8.0 5.9 -0.6 54 3.4 CALM 0 0 0 0 1021.0 - 0.0
26/12:00am 8.9 6.0 -1.3 49 4.0 SSE 4 7 2 4 1021.0 1020.0 0.0
 
Date/Time
CST
Temp
°C
App
Temp
°C
Dew
Point
Rel
Hum
%
Delta-T
°C
Wind Press
QNH
hPa
Press
MSL
hPa
Rain
since 9 am
mm
Dir
 
Spd
km/h
Gust
km/h
Spd
kts
Gust
kts
25/11:30pm 9.7 6.3 -2.2 43 4.6 SSE 6 7 3 4 1021.0 - 0.0
25/11:00pm 10.5 7.3 -0.6 46 4.5 SSE 6 7 3 4 1021.1 - 0.0
25/10:30pm 11.3 7.9 -1.8 40 5.2 SSE 6 9 3 5 1021.2 - 0.0

Other Formats:

Comma delimited format used in spreadsheet applications
http://www.bom.gov.au/fwo/IDD60801/IDD60801.95322.axf

JavaScript Object Notation format (JSON) in row-major order
http://www.bom.gov.au/fwo/IDD60801/IDD60801.95322.json